Terminal Aerodrome Forecast
Issued by NWS Billings, MT

Home | Current Version | Previous Version | Text Only | Print | Product List | Glossary Off
Versions: 1 2 3 4 5 6 7 8 9 10 11 12 13 14

831
FTUS45 KBYZ 212320
TAFMLS
TAF
KMLS 212320Z 2200/2224 14012G20KT P6SM FEW200
     FM221900 12015G22KT P6SM SCT050 BKN150=

USA.gov is the U.S. government's official web portal to all federal, state and local government web resources and services.